EGKB

London Biggin Hill Airport

Airport
ICAO code
EGKB
IATA Code
BQH
Summary
ICAO Region
EUR
ICAO Territory
Location

Biggin Hill, London, England

Serving
London
Elevation
599 ft
Coordinates
51° 19' 35" N , 0° 1' 53" E
KCC
Cfb
Metar
Observation
EGKB 101220Z 08010KT 050V130 CAVOK 26/12 Q1026
Station
Biggin Hill
Date/Time
2022-08-10 12:20:00
Wind direction
80°
Wind speed
10 kts
Lowest cloud amount
clouds and visibility OK
Temperature
26°C
Dew point
12°C
Humidity
41%
QNH
1026 hPa
Weather condition
n/a

Description

London Biggin Hill Airport is an airport at Biggin Hill in the London Borough of Bromley, located 12 nm south southeast of London, United Kingdom. The airport was formerly the Royal Air Force station RAF Biggin Hill, and a small enclave on the airport still retains that designation.

Climatology

Temperate Marine climate/Oceanic climate (Köppen climate classification Cfb). Moderately cool summer and comparatively warm winter with a temperature range of only 14°C. Prevailing south-westerly winds from the Atlantic Ocean.

Runways

Designator Length Width Surface Rops
11/29 792 18 ASP Yes/Yes
3/21 1802 45 ASP Yes/Yes

SKYbrary Partners:

Safety knowledge contributed by: